Yue Dian 83 — VRHN8 — position and weather

sailwx.info

Track history (hours):
 
Tides and Currents Weather Stations Pressure Air Temp Water Temp Dewpoint Dewpoint Depression Visibility Wind Speed Wind Dir Waves Ship Positions

Yue Dian 83

Last reported at 2018-Aug-01 10:20 UTC. Time now 2018-Aug-14 07:01 UTC.
Position N 31°05' E 122°30'.
Warning: this ship's position is 12 days out of date.

Length 229 m; draft 7.4 m.

Type: Cargo ship. MMSI: 477962600.

Date/timePositionNaut miles runAvg speedWind from/ knotsBaromVisibWave heightAir tempDewpointWater temp
2018-Aug-01 10:20N 31°05' E 122°30'610.5
2018-Aug-01 09:45N 31°05' E 122°23'413.5
2018-Aug-01 09:29N 31°06' E 122°19'814.4
2018-Aug-01 08:54N 31°11' E 122°11'614.5
2018-Aug-01 08:28N 31°14' E 122°04'713.6
2018-Aug-01 07:56N 31°15' E 121°56'89 1.9
2018-Jul-30 08:13N 31°58' E 120°24'0 0.0
2018-Jul-30 06:18N 31°58' E 120°24'0 0.2
2018-Jul-30 05:59N 31°58' E 120°24'2 5.0
2018-Jul-30 05:30N 31°59' E 120°27'3 6.6
2018-Jul-30 05:00N 32°02' E 120°27'4 7.7
2018-Jul-30 04:30N 32°02' E 120°32'84 3.3
2018-Jul-29 03:03N 31°16' E 121°54'111.6
2018-Jul-29 03:00N 31°16' E 121°55'18 8.7
2018-Jul-29 00:57N 31°09' E 122°14'3 6.9
2018-Jul-29 00:30N 31°07' E 122°17'5 8.8
2018-Jul-28 23:56N 31°06' E 122°23'24 2.0
2018-Jul-28 11:56N 31°02' E 122°51'21 8.1
2018-Jul-28 09:17N 30°50' E 123°11'45812.1
2018-Jul-26 19:19N 24°14' E 118°52'412.5
2018-Jul-26 18:59N 24°11' E 118°48'612.3
2018-Jul-26 18:30N 24°07' E 118°43'612.1
2018-Jul-26 17:59N 24°03' E 118°38'611.9
2018-Jul-26 17:30N 23°60' E 118°33'611.9
2018-Jul-26 17:00N 23°56' E 118°28'611.9
2018-Jul-26 16:30N 23°53' E 118°22'612.4
2018-Jul-26 16:00N 23°50' E 118°16'612.4
2018-Jul-26 15:30N 23°46' E 118°11'812.8
2018-Jul-26 14:53N 23°41' E 118°04'613.5
2018-Jul-26 14:26N 23°38' E 117°58'613.8
2018-Jul-26 14:00N 23°35' E 117°53'1014.5
2018-Jul-26 13:16N 23°29' E 117°44'414.1
2018-Jul-26 13:00N 23°28' E 117°39'713.7
2018-Jul-26 12:30N 23°23' E 117°35'39711.7
2018-Jul-25 02:38N 21°00' E 110°54'212.0
2018-Jul-25 02:28N 21°01' E 110°52'811.7
2018-Jul-25 01:50N 21°02' E 110°44'2 6.4
2018-Jul-25 01:30N 21°02' E 110°42'510.4
2018-Jul-25 01:00N 21°03' E 110°37'611.3
2018-Jul-25 00:30N 21°05' E 110°31'4 9.0
2018-Jul-25 00:00N 21°06' E 110°26'4 8.6
2018-Jul-24 23:30N 21°10' E 110°25'5 9.1
2018-Jul-24 23:00N 21°15' E 110°25'3 6.7
2018-Jul-24 22:30N 21°18' E 110°25'0 0.2
2018-Jul-24 22:00N 21°18' E 110°25'0 0.0
2018-Jul-24 21:30N 21°18' E 110°25'0 0.0
2018-Jul-24 21:00N 21°18' E 110°25'0 0.0
2018-Jul-24 20:27N 21°18' E 110°25'0 0.0
2018-Jul-24 19:57N 21°18' E 110°25'0 0.0
2018-Jul-24 19:30N 21°18' E 110°25'0 0.0
2018-Jul-24 19:00N 21°18' E 110°25'0 0.0
2018-Jul-24 18:30N 21°18' E 110°25'0 0.0
2018-Jul-24 18:00N 21°18' E 110°25'0 0.0
2018-Jul-24 17:30N 21°18' E 110°25'0 0.0
2018-Jul-24 17:00N 21°18' E 110°25'0 0.0
2018-Jul-24 16:30N 21°18' E 110°25'0 0.0
2018-Jul-24 16:00N 21°18' E 110°25'0 0.0
2018-Jul-24 15:30N 21°18' E 110°25'0 0.0
2018-Jul-24 14:18N 21°18' E 110°25'0 0.0
2018-Jul-24 14:00N 21°18' E 110°25'0 0.0
2018-Jul-24 13:30N 21°18' E 110°25'0 0.0
2018-Jul-24 12:57N 21°18' E 110°25'0 0.0
2018-Jul-24 12:30N 21°18' E 110°25'0 0.0
2018-Jul-24 12:00N 21°18' E 110°25'0 0.0
2018-Jul-24 11:30N 21°18' E 110°25'0 0.0
2018-Jul-24 11:00N 21°18' E 110°25'0 0.0
2018-Jul-24 10:30N 21°18' E 110°25'0 0.0
2018-Jul-24 09:57N 21°18' E 110°25'0 0.0
2018-Jul-24 09:30N 21°18' E 110°25'0 0.0
2018-Jul-24 09:00N 21°18' E 110°25'0 0.0
2018-Jul-24 08:30N 21°18' E 110°25'0 0.0
2018-Jul-24 08:00N 21°18' E 110°25'0 0.0
2018-Jul-24 07:30N 21°18' E 110°25'0 0.0
2018-Jul-24 06:57N 21°18' E 110°25'0 0.0
2018-Jul-24 06:30N 21°18' E 110°25'0 0.0
2018-Jul-24 06:00N 21°18' E 110°25'0 0.0
2018-Jul-24 05:27N 21°18' E 110°25'0 0.0
2018-Jul-24 04:57N 21°18' E 110°25'0 0.0
2018-Jul-24 04:30N 21°18' E 110°25'0 0.0
2018-Jul-24 04:00N 21°18' E 110°25'0 0.0
2018-Jul-24 03:24N 21°18' E 110°25'0 0.0
2018-Jul-24 02:51N 21°18' E 110°25'0 0.0
2018-Jul-24 02:30N 21°18' E 110°25'0 0.0
2018-Jul-24 01:57N 21°18' E 110°25'0 0.0
2018-Jul-24 01:30N 21°18' E 110°25'0 0.0
2018-Jul-24 00:57N 21°18' E 110°25'0 0.0
2018-Jul-24 00:30N 21°18' E 110°25'0 0.0
2018-Jul-24 00:00N 21°18' E 110°25'0 0.0
2018-Jul-23 23:27N 21°18' E 110°25'0 0.0
2018-Jul-23 22:57N 21°18' E 110°25'0 0.0
2018-Jul-23 22:30N 21°18' E 110°25'0 0.0
2018-Jul-23 22:00N 21°18' E 110°25'0 0.0
2018-Jul-23 21:30N 21°18' E 110°25'0 0.0
2018-Jul-23 21:00N 21°18' E 110°25'0 0.0
2018-Jul-23 19:54N 21°18' E 110°25'0 0.0
2018-Jul-23 19:30N 21°18' E 110°25'0 0.0
2018-Jul-23 18:57N 21°18' E 110°25'0 0.0
2018-Jul-23 18:27N 21°18' E 110°25'0 0.0
2018-Jul-23 18:00N 21°18' E 110°25'0 0.0
2018-Jul-23 17:27N 21°18' E 110°25'0 0.0
2018-Jul-23 17:00N 21°18' E 110°25'0 0.0
2018-Jul-23 16:30N 21°18' E 110°25'0 0.0
2018-Jul-23 15:57N 21°18' E 110°25'0 0.0
2018-Jul-23 15:30N 21°18' E 110°25'0 0.0
2018-Jul-23 15:00N 21°18' E 110°25'0 0.0
2018-Jul-23 14:27N 21°18' E 110°25'0 0.0
2018-Jul-23 14:00N 21°18' E 110°25'0 0.0
2018-Jul-23 13:30N 21°18' E 110°25'0 0.0
2018-Jul-23 12:57N 21°18' E 110°25'0 0.0
2018-Jul-23 12:30N 21°18' E 110°25'0 0.0
2018-Jul-23 11:57N 21°18' E 110°25'0 0.0
2018-Jul-23 11:27N 21°18' E 110°25'0 0.0
2018-Jul-23 11:00N 21°18' E 110°25'0 0.0
2018-Jul-23 10:18N 21°18' E 110°25'0 0.0
2018-Jul-23 09:51N 21°18' E 110°25'0 0.0
2018-Jul-23 09:30N 21°18' E 110°25'0 0.0
2018-Jul-23 09:00N 21°18' E 110°25'0 0.0
2018-Jul-23 08:27N 21°18' E 110°25'0 0.0
2018-Jul-23 07:54N 21°18' E 110°25'0 0.0
2018-Jul-23 07:30N 21°18' E 110°25'0 0.0
2018-Jul-23 07:00N 21°18' E 110°25'0 0.0
2018-Jul-23 06:30N 21°18' E 110°25'0 0.0
2018-Jul-23 06:00N 21°18' E 110°25'0 0.0
2018-Jul-23 05:30N 21°18' E 110°25'0 0.0
2018-Jul-23 05:00N 21°18' E 110°25'0 0.0
2018-Jul-23 04:27N 21°18' E 110°25'0 0.0
2018-Jul-23 03:57N 21°18' E 110°25'0 0.0
2018-Jul-23 03:30N 21°18' E 110°25'0 0.0
2018-Jul-23 03:00N 21°18' E 110°25'0 0.3
2018-Jul-23 02:30N 21°18' E 110°25'1 2.5
2018-Jul-23 02:00N 21°17' E 110°25'3 5.9
2018-Jul-23 01:30N 21°14' E 110°26'4 8.7
2018-Jul-23 01:00N 21°10' E 110°25'5 9.9
2018-Jul-23 00:30N 21°05' E 110°27'510.0
2018-Jul-23 00:00N 21°05' E 110°32'511.0
2018-Jul-22 23:30N 21°03' E 110°38'510.8
2018-Jul-22 23:00N 21°02' E 110°44'4 8.3
2018-Jul-22 22:30N 20°60' E 110°47'  
Track history (hours):
 
Tides and Currents Weather Stations Pressure Air Temp Water Temp Dewpoint Dewpoint Depression Visibility Wind Speed Wind Dir Waves Ship Positions

Yue Dian 83

Last reported at 2018-Aug-01 10:20 UTC. Time now 2018-Aug-14 07:01 UTC.
Position N 31°05' E 122°30'.
Warning: this ship's position is 12 days out of date.

Length 229 m; draft 7.4 m.

Type: Cargo ship. MMSI: 477962600.

Date/timePositionNaut miles runAvg speedWind from/ knotsBaromVisibWave heightAir tempDewpointWater temp
2018-Aug-01 10:20N 31°05' E 122°30'610.5
2018-Aug-01 09:45N 31°05' E 122°23'413.5
2018-Aug-01 09:29N 31°06' E 122°19'814.4
2018-Aug-01 08:54N 31°11' E 122°11'614.5
2018-Aug-01 08:28N 31°14' E 122°04'713.6
2018-Aug-01 07:56N 31°15' E 121°56'89 1.9
2018-Jul-30 08:13N 31°58' E 120°24'0 0.0
2018-Jul-30 06:18N 31°58' E 120°24'0 0.2
2018-Jul-30 05:59N 31°58' E 120°24'2 5.0
2018-Jul-30 05:30N 31°59' E 120°27'3 6.6
2018-Jul-30 05:00N 32°02' E 120°27'4 7.7
2018-Jul-30 04:30N 32°02' E 120°32'84 3.3
2018-Jul-29 03:03N 31°16' E 121°54'111.6
2018-Jul-29 03:00N 31°16' E 121°55'18 8.7
2018-Jul-29 00:57N 31°09' E 122°14'3 6.9
2018-Jul-29 00:30N 31°07' E 122°17'5 8.8
2018-Jul-28 23:56N 31°06' E 122°23'24 2.0
2018-Jul-28 11:56N 31°02' E 122°51'21 8.1
2018-Jul-28 09:17N 30°50' E 123°11'45812.1
2018-Jul-26 19:19N 24°14' E 118°52'412.5
2018-Jul-26 18:59N 24°11' E 118°48'612.3
2018-Jul-26 18:30N 24°07' E 118°43'612.1
2018-Jul-26 17:59N 24°03' E 118°38'611.9
2018-Jul-26 17:30N 23°60' E 118°33'611.9
2018-Jul-26 17:00N 23°56' E 118°28'611.9
2018-Jul-26 16:30N 23°53' E 118°22'612.4
2018-Jul-26 16:00N 23°50' E 118°16'612.4
2018-Jul-26 15:30N 23°46' E 118°11'812.8
2018-Jul-26 14:53N 23°41' E 118°04'613.5
2018-Jul-26 14:26N 23°38' E 117°58'613.8
2018-Jul-26 14:00N 23°35' E 117°53'1014.5
2018-Jul-26 13:16N 23°29' E 117°44'414.1
2018-Jul-26 13:00N 23°28' E 117°39'713.7
2018-Jul-26 12:30N 23°23' E 117°35'39711.7
2018-Jul-25 02:38N 21°00' E 110°54'212.0
2018-Jul-25 02:28N 21°01' E 110°52'811.7
2018-Jul-25 01:50N 21°02' E 110°44'2 6.4
2018-Jul-25 01:30N 21°02' E 110°42'510.4
2018-Jul-25 01:00N 21°03' E 110°37'611.3
2018-Jul-25 00:30N 21°05' E 110°31'4 9.0
2018-Jul-25 00:00N 21°06' E 110°26'4 8.6
2018-Jul-24 23:30N 21°10' E 110°25'5 9.1
2018-Jul-24 23:00N 21°15' E 110°25'3 6.7
2018-Jul-24 22:30N 21°18' E 110°25'0 0.2
2018-Jul-24 22:00N 21°18' E 110°25'0 0.0
2018-Jul-24 21:30N 21°18' E 110°25'0 0.0
2018-Jul-24 21:00N 21°18' E 110°25'0 0.0
2018-Jul-24 20:27N 21°18' E 110°25'0 0.0
2018-Jul-24 19:57N 21°18' E 110°25'0 0.0
2018-Jul-24 19:30N 21°18' E 110°25'0 0.0
2018-Jul-24 19:00N 21°18' E 110°25'0 0.0
2018-Jul-24 18:30N 21°18' E 110°25'0 0.0
2018-Jul-24 18:00N 21°18' E 110°25'0 0.0
2018-Jul-24 17:30N 21°18' E 110°25'0 0.0
2018-Jul-24 17:00N 21°18' E 110°25'0 0.0
2018-Jul-24 16:30N 21°18' E 110°25'0 0.0
2018-Jul-24 16:00N 21°18' E 110°25'0 0.0
2018-Jul-24 15:30N 21°18' E 110°25'0 0.0
2018-Jul-24 14:18N 21°18' E 110°25'0 0.0
2018-Jul-24 14:00N 21°18' E 110°25'0 0.0
2018-Jul-24 13:30N 21°18' E 110°25'0 0.0
2018-Jul-24 12:57N 21°18' E 110°25'0 0.0
2018-Jul-24 12:30N 21°18' E 110°25'0 0.0
2018-Jul-24 12:00N 21°18' E 110°25'0 0.0
2018-Jul-24 11:30N 21°18' E 110°25'0 0.0
2018-Jul-24 11:00N 21°18' E 110°25'0 0.0
2018-Jul-24 10:30N 21°18' E 110°25'0 0.0
2018-Jul-24 09:57N 21°18' E 110°25'0 0.0
2018-Jul-24 09:30N 21°18' E 110°25'0 0.0
2018-Jul-24 09:00N 21°18' E 110°25'0 0.0
2018-Jul-24 08:30N 21°18' E 110°25'0 0.0
2018-Jul-24 08:00N 21°18' E 110°25'0 0.0
2018-Jul-24 07:30N 21°18' E 110°25'0 0.0
2018-Jul-24 06:57N 21°18' E 110°25'0 0.0
2018-Jul-24 06:30N 21°18' E 110°25'0 0.0
2018-Jul-24 06:00N 21°18' E 110°25'0 0.0
2018-Jul-24 05:27N 21°18' E 110°25'0 0.0
2018-Jul-24 04:57N 21°18' E 110°25'0 0.0
2018-Jul-24 04:30N 21°18' E 110°25'0 0.0
2018-Jul-24 04:00N 21°18' E 110°25'0 0.0
2018-Jul-24 03:24N 21°18' E 110°25'0 0.0
2018-Jul-24 02:51N 21°18' E 110°25'0 0.0
2018-Jul-24 02:30N 21°18' E 110°25'0 0.0
2018-Jul-24 01:57N 21°18' E 110°25'0 0.0
2018-Jul-24 01:30N 21°18' E 110°25'0 0.0
2018-Jul-24 00:57N 21°18' E 110°25'0 0.0
2018-Jul-24 00:30N 21°18' E 110°25'0 0.0
2018-Jul-24 00:00N 21°18' E 110°25'0 0.0
2018-Jul-23 23:27N 21°18' E 110°25'0 0.0
2018-Jul-23 22:57N 21°18' E 110°25'0 0.0
2018-Jul-23 22:30N 21°18' E 110°25'0 0.0
2018-Jul-23 22:00N 21°18' E 110°25'0 0.0
2018-Jul-23 21:30N 21°18' E 110°25'0 0.0
2018-Jul-23 21:00N 21°18' E 110°25'0 0.0
2018-Jul-23 19:54N 21°18' E 110°25'0 0.0
2018-Jul-23 19:30N 21°18' E 110°25'0 0.0
2018-Jul-23 18:57N 21°18' E 110°25'0 0.0
2018-Jul-23 18:27N 21°18' E 110°25'0 0.0
2018-Jul-23 18:00N 21°18' E 110°25'0 0.0
2018-Jul-23 17:27N 21°18' E 110°25'0 0.0
2018-Jul-23 17:00N 21°18' E 110°25'0 0.0
2018-Jul-23 16:30N 21°18' E 110°25'0 0.0
2018-Jul-23 15:57N 21°18' E 110°25'0 0.0
2018-Jul-23 15:30N 21°18' E 110°25'0 0.0
2018-Jul-23 15:00N 21°18' E 110°25'0 0.0
2018-Jul-23 14:27N 21°18' E 110°25'0 0.0
2018-Jul-23 14:00N 21°18' E 110°25'0 0.0
2018-Jul-23 13:30N 21°18' E 110°25'0 0.0
2018-Jul-23 12:57N 21°18' E 110°25'0 0.0
2018-Jul-23 12:30N 21°18' E 110°25'0 0.0
2018-Jul-23 11:57N 21°18' E 110°25'0 0.0
2018-Jul-23 11:27N 21°18' E 110°25'0 0.0
2018-Jul-23 11:00N 21°18' E 110°25'0 0.0
2018-Jul-23 10:18N 21°18' E 110°25'0 0.0
2018-Jul-23 09:51N 21°18' E 110°25'0 0.0
2018-Jul-23 09:30N 21°18' E 110°25'0 0.0
2018-Jul-23 09:00N 21°18' E 110°25'0 0.0
2018-Jul-23 08:27N 21°18' E 110°25'0 0.0
2018-Jul-23 07:54N 21°18' E 110°25'0 0.0
2018-Jul-23 07:30N 21°18' E 110°25'0 0.0
2018-Jul-23 07:00N 21°18' E 110°25'0 0.0
2018-Jul-23 06:30N 21°18' E 110°25'0 0.0
2018-Jul-23 06:00N 21°18' E 110°25'0 0.0
2018-Jul-23 05:30N 21°18' E 110°25'0 0.0
2018-Jul-23 05:00N 21°18' E 110°25'0 0.0
2018-Jul-23 04:27N 21°18' E 110°25'0 0.0
2018-Jul-23 03:57N 21°18' E 110°25'0 0.0
2018-Jul-23 03:30N 21°18' E 110°25'0 0.0
2018-Jul-23 03:00N 21°18' E 110°25'0 0.3
2018-Jul-23 02:30N 21°18' E 110°25'1 2.5
2018-Jul-23 02:00N 21°17' E 110°25'3 5.9
2018-Jul-23 01:30N 21°14' E 110°26'4 8.7
2018-Jul-23 01:00N 21°10' E 110°25'5 9.9
2018-Jul-23 00:30N 21°05' E 110°27'510.0
2018-Jul-23 00:00N 21°05' E 110°32'511.0
2018-Jul-22 23:30N 21°03' E 110°38'510.8
2018-Jul-22 23:00N 21°02' E 110°44'4 8.3
2018-Jul-22 22:30N 20°60' E 110°47'  

Dump ship's entire track history